sensor_id;sensor_type;location;lat;lon;timestamp;noise_LAeq;noise_LA_min;noise_LA_max;noise_LA01;noise_LA95
66459;Laerm;56836;52.570;4.692;2022-12-07T00:00:03;48.27;47.38;49.17;;
66459;Laerm;56836;52.570;4.692;2022-12-07T00:00:13;48.24;47.13;49.35;;
66459;Laerm;56836;52.570;4.692;2022-12-07T00:00:25;48.28;47.33;49.21;;
66459;Laerm;56836;52.570;4.692;2022-12-07T00:00:35;48.23;47.32;49.19;;
66459;Laerm;56836;52.570;4.692;2022-12-07T00:00:46;48.27;47.24;49.14;;
66459;Laerm;56836;52.570;4.692;2022-12-07T00:01:12;48.24;47.47;49.15;;
66459;Laerm;56836;52.570;4.692;2022-12-07T00:01:25;48.24;47.29;49.15;;
66459;Laerm;56836;52.570;4.692;2022-12-07T00:01:36;48.23;47.31;49.27;;
66459;Laerm;56836;52.570;4.692;2022-12-07T00:01:48;48.25;47.08;49.24;;
66459;Laerm;56836;52.570;4.692;2022-12-07T00:01:58;48.21;47.03;49.21;;
66459;Laerm;56836;52.570;4.692;2022-12-07T00:02:09;48.25;47.20;49.20;;
66459;Laerm;56836;52.570;4.692;2022-12-07T00:02:20;48.23;47.24;49.05;;
66459;Laerm;56836;52.570;4.692;2022-12-07T00:02:31;48.21;47.29;49.24;;
66459;Laerm;56836;52.570;4.692;2022-12-07T00:02:41;48.22;47.22;49.23;;
66459;Laerm;56836;52.570;4.692;2022-12-07T00:02:51;48.22;47.11;49.14;;
66459;Laerm;56836;52.570;4.692;2022-12-07T00:03:02;48.20;47.15;49.01;;
66459;Laerm;56836;52.570;4.692;2022-12-07T00:03:12;48.22;47.41;49.19;;
66459;Laerm;56836;52.570;4.692;2022-12-07T00:03:23;48.20;47.24;48.92;;
66459;Laerm;56836;52.570;4.692;2022-12-07T00:03:33;48.21;46.95;49.29;;
66459;Laerm;56836;52.570;4.692;2022-12-07T00:03:44;48.20;47.13;49.21;;
66459;Laerm;56836;52.570;4.692;2022-12-07T00:03:56;48.21;47.36;49.17;;
66459;Laerm;56836;52.570;4.692;2022-12-07T00:04:11;48.22;47.23;49.25;;
66459;Laerm;56836;52.570;4.692;2022-12-07T00:04:23;48.22;47.11;49.06;;
66459;Laerm;56836;52.570;4.692;2022-12-07T00:04:34;48.23;47.34;49.08;;
66459;Laerm;56836;52.570;4.692;2022-12-07T00:04:44;48.29;47.38;49.11;;
66459;Laerm;56836;52.570;4.692;2022-12-07T00:04:54;48.23;47.31;49.14;;
66459;Laerm;56836;52.570;4.692;2022-12-07T00:05:05;48.22;47.29;49.12;;
66459;Laerm;56836;52.570;4.692;2022-12-07T00:05:15;48.21;47.47;49.06;;
66459;Laerm;56836;52.570;4.692;2022-12-07T00:05:26;48.20;47.25;49.11;;
66459;Laerm;56836;52.570;4.692;2022-12-07T00:05:37;48.22;47.20;49.17;;
66459;Laerm;56836;52.570;4.692;2022-12-07T00:05:47;48.20;47.20;49.18;;
66459;Laerm;56836;52.570;4.692;2022-12-07T00:05:58;48.17;47.36;49.44;;
66459;Laerm;56836;52.570;4.692;2022-12-07T00:06:09;48.19;47.24;49.11;;
66459;Laerm;56836;52.570;4.692;2022-12-07T00:06:20;48.18;47.24;49.25;;
66459;Laerm;56836;52.570;4.692;2022-12-07T00:06:41;48.19;47.18;49.17;;
66459;Laerm;56836;52.570;4.692;2022-12-07T00:06:52;48.19;47.08;49.47;;
66459;Laerm;56836;52.570;4.692;2022-12-07T00:07:04;48.16;47.14;49.13;;
66459;Laerm;56836;52.570;4.692;2022-12-07T00:07:14;48.19;47.32;49.02;;
66459;Laerm;56836;52.570;4.692;2022-12-07T00:07:24;48.16;47.35;48.96;;
66459;Laerm;56836;52.570;4.692;2022-12-07T00:07:35;48.17;47.14;49.12;;
66459;Laerm;56836;52.570;4.692;2022-12-07T00:07:45;48.18;47.20;49.12;;
66459;Laerm;56836;52.570;4.692;2022-12-07T00:07:56;48.17;46.97;49.29;;
66459;Laerm;56836;52.570;4.692;2022-12-07T00:08:06;48.16;47.31;49.19;;
66459;Laerm;56836;52.570;4.692;2022-12-07T00:08:16;48.20;47.28;49.02;;
66459;Laerm;56836;52.570;4.692;2022-12-07T00:08:27;48.17;46.94;49.07;;
66459;Laerm;56836;52.570;4.692;2022-12-07T00:08:37;48.21;47.30;49.20;;
66459;Laerm;56836;52.570;4.692;2022-12-07T00:08:48;48.17;47.17;49.03;;
66459;Laerm;56836;52.570;4.692;2022-12-07T00:08:58;48.19;47.42;49.29;;
66459;Laerm;56836;52.570;4.692;2022-12-07T00:09:11;48.15;47.01;48.86;;
66459;Laerm;56836;52.570;4.692;2022-12-07T00:09:25;48.20;47.27;49.10;;
66459;Laerm;56836;52.570;4.692;2022-12-07T00:09:36;48.17;47.28;49.24;;
66459;Laerm;56836;52.570;4.692;2022-12-07T00:10:18;48.22;47.11;49.27;;
66459;Laerm;56836;52.570;4.692;2022-12-07T00:10:29;48.22;46.99;49.02;;
66459;Laerm;56836;52.570;4.692;2022-12-07T00:10:39;48.20;47.21;49.19;;
66459;Laerm;56836;52.570;4.692;2022-12-07T00:10:49;48.19;47.22;49.12;;
66459;Laerm;56836;52.570;4.692;2022-12-07T00:11:03;48.25;47.45;49.40;;
66459;Laerm;56836;52.570;4.692;2022-12-07T00:11:15;48.22;47.18;48.97;;
66459;Laerm;56836;52.570;4.692;2022-12-07T00:11:25;48.24;47.19;49.20;;
66459;Laerm;56836;52.570;4.692;2022-12-07T00:11:36;48.26;47.44;49.28;;
66459;Laerm;56836;52.570;4.692;2022-12-07T00:11:50;48.21;47.28;49.34;;
66459;Laerm;56836;52.570;4.692;2022-12-07T00:12:00;48.25;47.45;49.32;;
66459;Laerm;56836;52.570;4.692;2022-12-07T00:12:11;48.28;47.28;49.08;;
66459;Laerm;56836;52.570;4.692;2022-12-07T00:12:21;48.25;47.05;49.44;;
66459;Laerm;56836;52.570;4.692;2022-12-07T00:12:32;48.26;47.19;49.48;;
66459;Laerm;56836;52.570;4.692;2022-12-07T00:12:42;48.25;47.13;49.13;;
66459;Laerm;56836;52.570;4.692;2022-12-07T00:12:53;48.21;47.10;49.13;;
66459;Laerm;56836;52.570;4.692;2022-12-07T00:13:04;48.26;47.17;49.38;;
66459;Laerm;56836;52.570;4.692;2022-12-07T00:13:14;48.25;47.45;49.30;;
66459;Laerm;56836;52.570;4.692;2022-12-07T00:13:24;48.23;47.34;49.16;;
66459;Laerm;56836;52.570;4.692;2022-12-07T00:13:35;48.24;47.05;49.14;;
66459;Laerm;56836;52.570;4.692;2022-12-07T00:13:46;48.29;47.32;49.13;;
66459;Laerm;56836;52.570;4.692;2022-12-07T00:13:57;48.25;47.44;49.32;;
66459;Laerm;56836;52.570;4.692;2022-12-07T00:14:10;48.29;47.26;48.95;;
66459;Laerm;56836;52.570;4.692;2022-12-07T00:14:21;48.24;47.23;48.99;;
66459;Laerm;56836;52.570;4.692;2022-12-07T00:14:31;48.24;47.42;49.03;;
66459;Laerm;56836;52.570;4.692;2022-12-07T00:14:44;48.25;47.28;49.43;;
66459;Laerm;56836;52.570;4.692;2022-12-07T00:14:54;48.25;47.24;49.25;;
66459;Laerm;56836;52.570;4.692;2022-12-07T00:15:05;48.22;47.39;49.09;;
66459;Laerm;56836;52.570;4.692;2022-12-07T00:15:15;48.23;47.53;49.28;;
66459;Laerm;56836;52.570;4.692;2022-12-07T00:15:26;48.26;47.29;49.28;;
66459;Laerm;56836;52.570;4.692;2022-12-07T00:15:36;48.24;47.41;48.95;;
66459;Laerm;56836;52.570;4.692;2022-12-07T00:15:47;48.28;47.42;49.26;;
66459;Laerm;56836;52.570;4.692;2022-12-07T00:16:05;48.27;47.47;49.06;;
66459;Laerm;56836;52.570;4.692;2022-12-07T00:16:16;48.28;47.26;49.12;;
66459;Laerm;56836;52.570;4.692;2022-12-07T00:16:28;48.26;47.30;49.07;;
66459;Laerm;56836;52.570;4.692;2022-12-07T00:16:39;48.27;47.51;49.07;;
66459;Laerm;56836;52.570;4.692;2022-12-07T00:16:50;48.28;47.50;49.35;;
66459;Laerm;56836;52.570;4.692;2022-12-07T00:17:01;48.21;47.25;49.12;;
66459;Laerm;56836;52.570;4.692;2022-12-07T00:17:11;48.24;47.16;49.11;;
66459;Laerm;56836;52.570;4.692;2022-12-07T00:17:22;48.25;47.24;49.18;;
66459;Laerm;56836;52.570;4.692;2022-12-07T00:17:32;48.25;47.21;49.13;;
66459;Laerm;56836;52.570;4.692;2022-12-07T00:17:43;48.21;47.26;49.05;;
66459;Laerm;56836;52.570;4.692;2022-12-07T00:17:54;48.25;47.27;49.33;;
66459;Laerm;56836;52.570;4.692;2022-12-07T00:18:04;48.24;47.30;49.35;;
66459;Laerm;56836;52.570;4.692;2022-12-07T00:18:24;48.25;47.36;49.13;;
66459;Laerm;56836;52.570;4.692;2022-12-07T00:18:34;48.24;47.26;49.21;;
66459;Laerm;56836;52.570;4.692;2022-12-07T00:18:44;48.19;47.49;49.15;;
66459;Laerm;56836;52.570;4.692;2022-12-07T00:18:55;48.26;47.53;49.15;;
66459;Laerm;56836;52.570;4.692;2022-12-07T00:19:05;48.20;47.21;49.28;;
66459;Laerm;56836;52.570;4.692;2022-12-07T00:19:16;48.21;47.45;49.61;;
66459;Laerm;56836;52.570;4.692;2022-12-07T00:19:26;48.21;47.46;49.19;;
66459;Laerm;56836;52.570;4.692;2022-12-07T00:19:37;48.20;47.15;49.24;;
66459;Laerm;56836;52.570;4.692;2022-12-07T00:19:47;48.23;47.24;49.27;;
66459;Laerm;56836;52.570;4.692;2022-12-07T00:19:57;48.20;47.25;49.26;;
66459;Laerm;56836;52.570;4.692;2022-12-07T00:20:14;48.23;47.25;49.16;;
66459;Laerm;56836;52.570;4.692;2022-12-07T00:20:24;48.24;47.23;49.30;;
66459;Laerm;56836;52.570;4.692;2022-12-07T00:20:35;48.22;47.21;49.08;;
66459;Laerm;56836;52.570;4.692;2022-12-07T00:20:45;48.23;47.13;49.34;;
66459;Laerm;56836;52.570;4.692;2022-12-07T00:21:07;48.22;47.09;49.26;;
66459;Laerm;56836;52.570;4.692;2022-12-07T00:21:25;48.22;46.96;49.16;;
66459;Laerm;56836;52.570;4.692;2022-12-07T00:21:36;48.22;47.09;49.44;;
66459;Laerm;56836;52.570;4.692;2022-12-07T00:21:47;48.21;47.25;49.22;;
66459;Laerm;56836;52.570;4.692;2022-12-07T00:21:58;48.24;47.27;49.04;;
66459;Laerm;56836;52.570;4.692;2022-12-07T00:22:09;48.22;47.17;49.07;;
66459;Laerm;56836;52.570;4.692;2022-12-07T00:22:19;48.24;47.29;49.20;;
66459;Laerm;56836;52.570;4.692;2022-12-07T00:22:29;48.21;47.16;49.19;;
66459;Laerm;56836;52.570;4.692;2022-12-07T00:22:40;48.23;47.25;49.35;;
66459;Laerm;56836;52.570;4.692;2022-12-07T00:22:50;48.20;47.28;49.10;;
66459;Laerm;56836;52.570;4.692;2022-12-07T00:23:01;48.23;47.40;49.16;;
66459;Laerm;56836;52.570;4.692;2022-12-07T00:23:11;48.18;47.32;49.16;;
66459;Laerm;56836;52.570;4.692;2022-12-07T00:23:22;48.21;47.31;49.26;;
66459;Laerm;56836;52.570;4.692;2022-12-07T00:23:33;48.20;47.39;49.21;;
66459;Laerm;56836;52.570;4.692;2022-12-07T00:23:46;48.21;47.21;49.56;;
66459;Laerm;56836;52.570;4.692;2022-12-07T00:23:56;48.22;47.20;49.10;;
66459;Laerm;56836;52.570;4.692;2022-12-07T00:24:07;48.19;47.24;48.94;;
66459;Laerm;56836;52.570;4.692;2022-12-07T00:24:18;48.20;47.30;49.02;;
66459;Laerm;56836;52.570;4.692;2022-12-07T00:24:28;48.18;47.23;49.39;;
66459;Laerm;56836;52.570;4.692;2022-12-07T00:24:39;48.21;47.06;49.17;;
66459;Laerm;56836;52.570;4.692;2022-12-07T00:24:49;48.19;47.38;49.00;;
66459;Laerm;56836;52.570;4.692;2022-12-07T00:24:59;48.21;47.23;49.15;;
66459;Laerm;56836;52.570;4.692;2022-12-07T00:25:10;48.24;47.37;49.24;;
66459;Laerm;56836;52.570;4.692;2022-12-07T00:25:20;48.20;47.19;49.23;;
66459;Laerm;56836;52.570;4.692;2022-12-07T00:25:31;48.21;47.27;48.92;;
66459;Laerm;56836;52.570;4.692;2022-12-07T00:25:41;48.22;47.19;48.97;;
66459;Laerm;56836;52.570;4.692;2022-12-07T00:25:51;48.21;46.97;49.00;;
66459;Laerm;56836;52.570;4.692;2022-12-07T00:26:05;48.22;47.29;49.18;;
66459;Laerm;56836;52.570;4.692;2022-12-07T00:26:21;48.23;47.23;49.10;;
66459;Laerm;56836;52.570;4.692;2022-12-07T00:26:32;48.24;47.26;49.10;;
66459;Laerm;56836;52.570;4.692;2022-12-07T00:26:43;48.22;47.26;49.20;;
66459;Laerm;56836;52.570;4.692;2022-12-07T00:26:54;48.23;47.31;49.19;;
66459;Laerm;56836;52.570;4.692;2022-12-07T00:27:06;48.23;46.99;49.17;;
66459;Laerm;56836;52.570;4.692;2022-12-07T00:27:16;48.26;47.51;49.20;;
66459;Laerm;56836;52.570;4.692;2022-12-07T00:27:27;48.27;47.29;49.12;;
66459;Laerm;56836;52.570;4.692;2022-12-07T00:27:37;48.23;47.21;49.07;;
66459;Laerm;56836;52.570;4.692;2022-12-07T00:27:47;48.21;47.26;49.03;;
66459;Laerm;56836;52.570;4.692;2022-12-07T00:27:58;48.23;47.28;49.00;;
66459;Laerm;56836;52.570;4.692;2022-12-07T00:28:09;48.26;47.26;49.09;;
66459;Laerm;56836;52.570;4.692;2022-12-07T00:28:21;48.29;47.35;49.19;;
66459;Laerm;56836;52.570;4.692;2022-12-07T00:28:31;48.26;47.36;49.29;;
66459;Laerm;56836;52.570;4.692;2022-12-07T00:28:46;48.25;47.18;49.11;;
66459;Laerm;56836;52.570;4.692;2022-12-07T00:28:58;48.27;47.23;49.35;;
66459;Laerm;56836;52.570;4.692;2022-12-07T00:29:16;48.28;47.26;49.31;;
66459;Laerm;56836;52.570;4.692;2022-12-07T00:29:28;48.22;47.17;49.05;;
66459;Laerm;56836;52.570;4.692;2022-12-07T00:29:39;48.23;47.15;49.19;;
66459;Laerm;56836;52.570;4.692;2022-12-07T00:29:49;48.24;47.15;49.03;;
66459;Laerm;56836;52.570;4.692;2022-12-07T00:29:59;48.25;47.37;49.04;;
66459;Laerm;56836;52.570;4.692;2022-12-07T00:30:10;48.24;47.27;49.29;;
66459;Laerm;56836;52.570;4.692;2022-12-07T00:30:20;48.25;47.37;49.13;;
66459;Laerm;56836;52.570;4.692;2022-12-07T00:30:31;48.27;47.11;49.05;;
66459;Laerm;56836;52.570;4.692;2022-12-07T00:30:41;48.25;47.33;49.12;;
66459;Laerm;56836;52.570;4.692;2022-12-07T00:30:51;48.28;47.29;49.57;;
66459;Laerm;56836;52.570;4.692;2022-12-07T00:31:04;48.24;47.29;49.56;;
66459;Laerm;56836;52.570;4.692;2022-12-07T00:31:15;48.26;47.29;49.35;;
66459;Laerm;56836;52.570;4.692;2022-12-07T00:31:27;48.28;47.15;49.10;;
66459;Laerm;56836;52.570;4.692;2022-12-07T00:31:37;48.28;47.22;49.28;;
66459;Laerm;56836;52.570;4.692;2022-12-07T00:31:51;48.23;47.31;49.18;;
66459;Laerm;56836;52.570;4.692;2022-12-07T00:32:01;48.27;47.22;49.39;;
66459;Laerm;56836;52.570;4.692;2022-12-07T00:32:11;48.28;47.34;49.28;;
66459;Laerm;56836;52.570;4.692;2022-12-07T00:32:22;48.31;47.40;49.32;;
66459;Laerm;56836;52.570;4.692;2022-12-07T00:32:32;48.30;47.43;49.23;;
66459;Laerm;56836;52.570;4.692;2022-12-07T00:32:43;48.31;47.42;49.30;;
66459;Laerm;56836;52.570;4.692;2022-12-07T00:32:53;48.33;47.49;49.29;;
66459;Laerm;56836;52.570;4.692;2022-12-07T00:33:03;48.31;47.35;49.22;;
66459;Laerm;56836;52.570;4.692;2022-12-07T00:33:14;48.28;47.26;49.14;;
66459;Laerm;56836;52.570;4.692;2022-12-07T00:33:25;48.32;47.23;49.13;;
66459;Laerm;56836;52.570;4.692;2022-12-07T00:33:45;48.31;47.27;49.08;;
66459;Laerm;56836;52.570;4.692;2022-12-07T00:33:56;48.36;47.22;49.42;;
66459;Laerm;56836;52.570;4.692;2022-12-07T00:34:09;48.37;47.59;49.43;;
66459;Laerm;56836;52.570;4.692;2022-12-07T00:34:22;48.36;47.30;49.45;;
66459;Laerm;56836;52.570;4.692;2022-12-07T00:34:32;48.38;47.54;49.31;;
66459;Laerm;56836;52.570;4.692;2022-12-07T00:34:42;48.38;47.61;49.26;;
66459;Laerm;56836;52.570;4.692;2022-12-07T00:34:53;48.39;47.42;49.52;;
66459;Laerm;56836;52.570;4.692;2022-12-07T00:35:15;48.39;47.48;49.37;;
66459;Laerm;56836;52.570;4.692;2022-12-07T00:35:26;48.39;47.34;49.47;;
66459;Laerm;56836;52.570;4.692;2022-12-07T00:35:36;48.40;47.45;49.29;;
66459;Laerm;56836;52.570;4.692;2022-12-07T00:35:46;48.38;47.48;49.37;;
66459;Laerm;56836;52.570;4.692;2022-12-07T00:35:58;48.43;47.44;49.30;;
66459;Laerm;56836;52.570;4.692;2022-12-07T00:36:12;48.42;47.59;49.37;;
66459;Laerm;56836;52.570;4.692;2022-12-07T00:36:23;48.47;47.32;49.51;;
66459;Laerm;56836;52.570;4.692;2022-12-07T00:36:34;48.46;47.57;49.52;;
66459;Laerm;56836;52.570;4.692;2022-12-07T00:36:44;48.46;47.69;49.38;;
66459;Laerm;56836;52.570;4.692;2022-12-07T00:37:01;48.39;47.45;49.22;;
66459;Laerm;56836;52.570;4.692;2022-12-07T00:37:11;48.43;47.52;49.43;;
66459;Laerm;56836;52.570;4.692;2022-12-07T00:37:23;48.45;47.36;49.26;;
66459;Laerm;56836;52.570;4.692;2022-12-07T00:37:33;48.44;47.40;49.72;;
66459;Laerm;56836;52.570;4.692;2022-12-07T00:37:43;48.41;47.52;49.36;;
66459;Laerm;56836;52.570;4.692;2022-12-07T00:37:55;48.42;47.52;49.27;;
66459;Laerm;56836;52.570;4.692;2022-12-07T00:38:05;48.41;47.43;49.24;;
66459;Laerm;56836;52.570;4.692;2022-12-07T00:38:16;48.42;47.42;49.40;;
66459;Laerm;56836;52.570;4.692;2022-12-07T00:38:31;48.48;47.28;49.20;;
66459;Laerm;56836;52.570;4.692;2022-12-07T00:38:42;48.41;47.53;49.20;;
66459;Laerm;56836;52.570;4.692;2022-12-07T00:38:53;48.39;47.57;49.29;;
66459;Laerm;56836;52.570;4.692;2022-12-07T00:39:04;48.45;47.22;49.49;;
66459;Laerm;56836;52.570;4.692;2022-12-07T00:41:16;48.49;47.32;49.66;;
66459;Laerm;56836;52.570;4.692;2022-12-07T00:41:27;48.43;47.61;49.40;;
66459;Laerm;56836;52.570;4.692;2022-12-07T00:41:38;48.47;47.48;49.42;;
66459;Laerm;56836;52.570;4.692;2022-12-07T00:42:07;48.48;47.25;49.43;;
66459;Laerm;56836;52.570;4.692;2022-12-07T00:42:17;48.52;47.42;49.70;;
66459;Laerm;56836;52.570;4.692;2022-12-07T00:42:28;48.50;47.69;49.51;;
66459;Laerm;56836;52.570;4.692;2022-12-07T00:42:38;48.51;47.32;49.53;;
66459;Laerm;56836;52.570;4.692;2022-12-07T00:42:48;48.44;47.14;49.31;;
66459;Laerm;56836;52.570;4.692;2022-12-07T00:42:59;48.42;47.30;49.48;;
66459;Laerm;56836;52.570;4.692;2022-12-07T00:43:09;48.43;47.27;49.53;;
66459;Laerm;56836;52.570;4.692;2022-12-07T00:43:23;48.43;47.56;49.45;;
66459;Laerm;56836;52.570;4.692;2022-12-07T00:43:33;48.40;47.45;49.38;;
66459;Laerm;56836;52.570;4.692;2022-12-07T00:43:45;48.39;47.32;49.37;;
66459;Laerm;56836;52.570;4.692;2022-12-07T00:43:55;48.40;47.38;49.41;;
66459;Laerm;56836;52.570;4.692;2022-12-07T00:44:06;48.40;47.42;49.11;;
66459;Laerm;56836;52.570;4.692;2022-12-07T00:44:16;48.37;47.38;49.26;;
66459;Laerm;56836;52.570;4.692;2022-12-07T00:44:27;48.38;47.44;49.31;;
66459;Laerm;56836;52.570;4.692;2022-12-07T00:44:37;48.41;47.50;49.42;;
66459;Laerm;56836;52.570;4.692;2022-12-07T00:44:47;48.42;47.53;49.38;;
66459;Laerm;56836;52.570;4.692;2022-12-07T00:44:58;48.39;47.51;49.30;;
66459;Laerm;56836;52.570;4.692;2022-12-07T00:45:08;48.39;47.56;49.45;;
66459;Laerm;56836;52.570;4.692;2022-12-07T00:45:19;48.39;47.08;49.22;;
66459;Laerm;56836;52.570;4.692;2022-12-07T00:45:29;48.39;47.41;49.62;;
66459;Laerm;56836;52.570;4.692;2022-12-07T00:45:40;48.37;47.63;49.25;;
66459;Laerm;56836;52.570;4.692;2022-12-07T00:45:50;48.42;47.19;49.32;;
66459;Laerm;56836;52.570;4.692;2022-12-07T00:46:00;48.41;47.37;49.44;;
66459;Laerm;56836;52.570;4.692;2022-12-07T00:46:11;48.39;47.02;49.11;;
66459;Laerm;56836;52.570;4.692;2022-12-07T00:46:22;48.41;47.33;49.35;;
66459;Laerm;56836;52.570;4.692;2022-12-07T00:46:33;48.38;47.30;49.46;;
66459;Laerm;56836;52.570;4.692;2022-12-07T00:46:44;48.38;47.55;49.43;;
66459;Laerm;56836;52.570;4.692;2022-12-07T00:46:55;48.39;47.48;49.40;;
66459;Laerm;56836;52.570;4.692;2022-12-07T00:47:05;48.39;47.46;49.18;;
66459;Laerm;56836;52.570;4.692;2022-12-07T00:47:16;48.39;47.51;49.25;;
66459;Laerm;56836;52.570;4.692;2022-12-07T00:47:27;48.41;47.53;49.28;;
66459;Laerm;56836;52.570;4.692;2022-12-07T00:47:38;48.40;47.48;49.17;;
66459;Laerm;56836;52.570;4.692;2022-12-07T00:47:48;48.39;47.34;49.52;;
66459;Laerm;56836;52.570;4.692;2022-12-07T00:47:58;48.41;47.29;49.53;;
66459;Laerm;56836;52.570;4.692;2022-12-07T00:48:09;48.40;47.44;49.64;;
66459;Laerm;56836;52.570;4.692;2022-12-07T00:48:19;48.44;47.57;49.46;;
66459;Laerm;56836;52.570;4.692;2022-12-07T00:48:30;48.45;47.25;49.72;;
66459;Laerm;56836;52.570;4.692;2022-12-07T00:48:41;48.45;47.31;49.31;;
66459;Laerm;56836;52.570;4.692;2022-12-07T00:48:52;48.44;47.39;49.24;;
66459;Laerm;56836;52.570;4.692;2022-12-07T00:49:03;48.44;47.60;49.34;;
66459;Laerm;56836;52.570;4.692;2022-12-07T00:49:13;48.47;47.57;49.34;;
66459;Laerm;56836;52.570;4.692;2022-12-07T00:49:23;48.46;47.47;49.39;;
66459;Laerm;56836;52.570;4.692;2022-12-07T00:49:34;48.46;47.41;49.40;;
66459;Laerm;56836;52.570;4.692;2022-12-07T00:49:44;48.48;47.37;49.41;;
66459;Laerm;56836;52.570;4.692;2022-12-07T00:49:55;48.45;47.67;49.40;;
66459;Laerm;56836;52.570;4.692;2022-12-07T00:50:05;48.44;47.31;49.27;;
66459;Laerm;56836;52.570;4.692;2022-12-07T00:50:16;48.38;47.67;49.26;;
66459;Laerm;56836;52.570;4.692;2022-12-07T00:50:26;48.41;47.67;49.36;;
66459;Laerm;56836;52.570;4.692;2022-12-07T00:50:36;48.45;47.53;49.31;;
66459;Laerm;56836;52.570;4.692;2022-12-07T00:50:47;48.46;47.63;49.55;;
66459;Laerm;56836;52.570;4.692;2022-12-07T00:51:14;48.43;47.39;49.38;;
66459;Laerm;56836;52.570;4.692;2022-12-07T00:51:25;48.46;47.56;49.34;;
66459;Laerm;56836;52.570;4.692;2022-12-07T00:51:35;48.46;47.31;49.34;;
66459;Laerm;56836;52.570;4.692;2022-12-07T00:51:47;48.44;47.66;49.84;;
66459;Laerm;56836;52.570;4.692;2022-12-07T00:51:58;48.46;47.59;49.52;;
66459;Laerm;56836;52.570;4.692;2022-12-07T00:52:08;48.44;47.47;49.17;;
66459;Laerm;56836;52.570;4.692;2022-12-07T00:52:18;48.47;47.47;49.42;;
66459;Laerm;56836;52.570;4.692;2022-12-07T00:52:29;48.48;47.50;49.36;;
66459;Laerm;56836;52.570;4.692;2022-12-07T00:52:39;48.46;47.65;49.24;;
66459;Laerm;56836;52.570;4.692;2022-12-07T00:52:50;48.48;47.14;49.53;;
66459;Laerm;56836;52.570;4.692;2022-12-07T00:53:00;48.47;47.46;49.26;;
66459;Laerm;56836;52.570;4.692;2022-12-07T00:53:16;48.45;47.38;49.27;;
66459;Laerm;56836;52.570;4.692;2022-12-07T00:53:27;48.46;47.36;49.52;;
66459;Laerm;56836;52.570;4.692;2022-12-07T00:53:38;48.44;47.38;49.29;;
66459;Laerm;56836;52.570;4.692;2022-12-07T00:53:49;48.46;47.46;49.24;;
66459;Laerm;56836;52.570;4.692;2022-12-07T00:54:00;48.46;47.54;49.66;;
66459;Laerm;56836;52.570;4.692;2022-12-07T00:54:11;48.47;47.36;49.33;;
66459;Laerm;56836;52.570;4.692;2022-12-07T00:54:21;48.45;47.42;49.21;;
66459;Laerm;56836;52.570;4.692;2022-12-07T00:54:31;48.47;47.34;49.53;;
66459;Laerm;56836;52.570;4.692;2022-12-07T00:54:42;48.47;47.61;49.28;;
66459;Laerm;56836;52.570;4.692;2022-12-07T00:54:52;48.52;47.57;49.50;;
66459;Laerm;56836;52.570;4.692;2022-12-07T00:55:03;48.49;47.38;49.67;;
66459;Laerm;56836;52.570;4.692;2022-12-07T00:55:13;48.46;47.53;49.31;;
66459;Laerm;56836;52.570;4.692;2022-12-07T00:55:24;48.46;47.46;49.47;;
66459;Laerm;56836;52.570;4.692;2022-12-07T00:55:34;48.48;47.64;49.41;;
66459;Laerm;56836;52.570;4.692;2022-12-07T00:55:45;48.47;47.47;49.49;;
66459;Laerm;56836;52.570;4.692;2022-12-07T00:55:56;48.47;47.59;49.40;;
66459;Laerm;56836;52.570;4.692;2022-12-07T00:56:16;48.50;47.59;49.52;;
66459;Laerm;56836;52.570;4.692;2022-12-07T00:56:28;48.46;47.29;49.74;;
66459;Laerm;56836;52.570;4.692;2022-12-07T00:56:38;48.45;47.63;49.58;;
66459;Laerm;56836;52.570;4.692;2022-12-07T00:56:49;48.44;47.39;49.33;;
66459;Laerm;56836;52.570;4.692;2022-12-07T00:56:59;48.47;47.66;49.54;;
66459;Laerm;56836;52.570;4.692;2022-12-07T00:57:10;48.46;47.47;49.42;;
66459;Laerm;56836;52.570;4.692;2022-12-07T00:57:20;48.46;47.30;49.56;;
66459;Laerm;56836;52.570;4.692;2022-12-07T00:57:30;48.48;47.70;49.40;;
66459;Laerm;56836;52.570;4.692;2022-12-07T00:57:41;48.49;47.41;49.12;;
66459;Laerm;56836;52.570;4.692;2022-12-07T00:57:57;48.44;47.42;49.33;;
66459;Laerm;56836;52.570;4.692;2022-12-07T00:58:08;48.47;47.60;49.33;;
66459;Laerm;56836;52.570;4.692;2022-12-07T00:58:18;48.49;47.59;49.32;;
66459;Laerm;56836;52.570;4.692;2022-12-07T00:58:29;48.51;47.42;49.70;;
66459;Laerm;56836;52.570;4.692;2022-12-07T00:58:39;48.49;47.44;49.47;;
66459;Laerm;56836;52.570;4.692;2022-12-07T00:58:51;48.49;47.50;49.35;;
66459;Laerm;56836;52.570;4.692;2022-12-07T00:59:02;48.46;47.39;49.28;;
66459;Laerm;56836;52.570;4.692;2022-12-07T00:59:13;48.46;47.38;49.28;;
66459;Laerm;56836;52.570;4.692;2022-12-07T00:59:26;48.49;47.39;49.39;;
66459;Laerm;56836;52.570;4.692;2022-12-07T00:59:37;48.45;47.51;49.43;;
66459;Laerm;56836;52.570;4.692;2022-12-07T00:59:47;48.46;47.65;49.57;;
66459;Laerm;56836;52.570;4.692;2022-12-07T00:59:58;48.47;46.87;49.30;;
66459;Laerm;56836;52.570;4.692;2022-12-07T01:00:10;48.47;47.59;49.57;;
66459;Laerm;56836;52.570;4.692;2022-12-07T01:00:22;48.45;47.53;49.89;;
66459;Laerm;56836;52.570;4.692;2022-12-07T01:00:32;48.45;47.41;49.34;;
66459;Laerm;56836;52.570;4.692;2022-12-07T01:00:44;48.46;47.50;49.33;;
66459;Laerm;56836;52.570;4.692;2022-12-07T01:00:55;48.42;47.16;49.25;;
66459;Laerm;56836;52.570;4.692;2022-12-07T01:01:10;48.44;47.55;49.62;;
66459;Laerm;56836;52.570;4.692;2022-12-07T01:01:21;48.40;47.35;49.41;;
66459;Laerm;56836;52.570;4.692;2022-12-07T01:01:33;48.43;47.55;49.40;;
66459;Laerm;56836;52.570;4.692;2022-12-07T01:01:45;48.39;47.49;49.36;;
66459;Laerm;56836;52.570;4.692;2022-12-07T01:01:55;48.42;47.20;49.52;;
66459;Laerm;56836;52.570;4.692;2022-12-07T01:02:06;48.41;47.33;49.31;;
66459;Laerm;56836;52.570;4.692;2022-12-07T01:02:16;48.36;47.47;49.41;;
66459;Laerm;56836;52.570;4.692;2022-12-07T01:02:27;48.41;47.42;49.63;;
66459;Laerm;56836;52.570;4.692;2022-12-07T01:02:37;48.40;47.12;49.68;;
66459;Laerm;56836;52.570;4.692;2022-12-07T01:02:47;48.42;47.45;49.37;;
66459;Laerm;56836;52.570;4.692;2022-12-07T01:02:58;48.40;47.68;49.29;;
66459;Laerm;56836;52.570;4.692;2022-12-07T01:03:09;48.41;47.52;49.35;;
66459;Laerm;56836;52.570;4.692;2022-12-07T01:03:19;48.41;47.55;49.49;;
66459;Laerm;56836;52.570;4.692;2022-12-07T01:03:30;48.39;47.27;49.40;;
66459;Laerm;56836;52.570;4.692;2022-12-07T01:03:40;48.36;47.35;49.14;;
66459;Laerm;56836;52.570;4.692;2022-12-07T01:03:57;48.40;47.58;49.49;;
66459;Laerm;56836;52.570;4.692;2022-12-07T01:04:07;48.43;47.57;49.54;;
66459;Laerm;56836;52.570;4.692;2022-12-07T01:04:18;48.41;47.24;49.57;;
66459;Laerm;56836;52.570;4.692;2022-12-07T01:04:28;48.42;47.51;49.33;;
66459;Laerm;56836;52.570;4.692;2022-12-07T01:04:39;48.42;47.46;49.23;;
66459;Laerm;56836;52.570;4.692;2022-12-07T01:04:50;48.42;47.33;49.35;;
66459;Laerm;56836;52.570;4.692;2022-12-07T01:05:00;48.39;47.47;49.24;;
66459;Laerm;56836;52.570;4.692;2022-12-07T01:05:10;48.42;47.49;49.24;;
66459;Laerm;56836;52.570;4.692;2022-12-07T01:05:28;48.37;47.45;49.35;;
66459;Laerm;56836;52.570;4.692;2022-12-07T01:05:39;48.39;47.47;49.40;;
66459;Laerm;56836;52.570;4.692;2022-12-07T01:05:53;48.38;47.51;49.27;;
66459;Laerm;56836;52.570;4.692;2022-12-07T01:06:05;48.41;47.35;49.28;;